Terminal Aerodrome Forecast
Issued by NWS Birmingham, AL

Home | Current Version | Previous Version | Text Only | Print | Product List | Glossary On
Versions: 1 2 3 4 5 6 7 8 9 10 11 12 13 14 15
645
FTUS44 KBMX 301750 RRA
TAFBHM
TAF
KBHM 301750Z 3018/0118 17015G25KT P6SM VCSH BKN035 OVC120
     FM301830 19020G25KT 3SM TSRA BR BKN015CB OVC025
      TEMPO 3019/3020 26025G38KT 1/2SM +TSRA FG OVC015CB
     FM010700 23010KT P6SM -RA OVC050
     FM011200 23014G21KT P6SM OVC050=

USA.gov is the U.S. government's official web portal to all federal, state and local government web resources and services.